map of ADK home
ADK - Airport
Location
City:  Adak Island, Alaska, United States
Name:Adak Airport
ICAO:PADK
IATA:ADK
FAA LID:ADK

Details
Type:Airport (Part 139 Class I)
Use:Public/Civil
Latitude:5153'01"N (51.883582)
Longitude:17638'33"W (-176.642479)
Datum:WGS 1984
Elevation:19 ft (6 m)
Variation:4.41E (WMM2015v2 magnetic declination)
-0.19 annual change
Runways:1
Longest:7790 × 200 ft (2374 × 61 m), paved

Time
Time Zone:UTC-10 (DST-9)
Local Time:

Weather
METAR:PADK 041356Z AUTO 25031G41KT 9SM UP BKN010 OVC014 02/01 A2908 RMK AO2 PK WND 25041/1351 UPE21B41RAB21E41 CIG 009V013 SLP847 P0002 T00220011 FZRANO

Related Locations
Nearby:
Farthest:FAHM: 10992 mi / 17689 km
Hermanus, WC, ZA

Find:

   beyond  
but within

Other Information
Maps:
NOTAMs:
Links:
Sources:

  
  • flag of United States
  • flag of Alaska
  

Sectional Chart

Flight Planning
at skyvector.com

Satellite Image

Google Maps Satellite view

 

Copyright © 2004-2019 Karl L. Swartz. All rights reserved.
The Great Circle Mapper name and logo are trademarks of the Great Circle Mapper.
All other trademarks mentioned herein belong to their respective owners.
Please see credits for attibutions and further copyright information.

  Follow gcmap on Facebook Follow gcmap on Twitter GCmap on LinkedIn

hCard Microformat

Geo Microformat